PWSweather.com
Personal Weather Stations
Station Observations
GEELONGWX1
Bell Post Hill, GeelongAU

Bell Post HillGeelongAU

Lat: -38.101, Lon: 144.326

Elevation: 204

Station Type: Davis Vantage Pro2

http://www.geelongweather.com

High Low Average
Temperature 64.6°F18.1°F 50.8°F10.4°F 59.5°F15.3°F
Dew Point 56.8°F13.8°F 44.2°F6.8°F 51.4°F10.8°F
Winds 12.7 mph S20.4 mph S Calm Calm 1.3 mph 2.1 mph
Wind Gusts 19.6 mph31.5 mph -- 2.5 mph4.0 mph
Humidity 78% 69% 75%
Pressure 30.04 in1017.30 in 29.81 in1009.50 in -
Precipitation 1.36 in34.50 in - -
Hour Temp Dew Point Humidity Winds Wind Gusts Pressure Precip Precip Rate Daily Precip Total
12:00 AM 60.2°F15.7°C 50.0°F10.0°C 69% Calm Calm -- 29.95 in1014.2 mb 0.00 in0.0 mm 0.00 in/hr0.0 mm/hr 0.00 in0.0 mm
12:10 AM 60.0°F15.6°C 49.8°F9.9°C 69% 1.2 mph NE1.9 kmh NE 3.5 mph5.6 kmh 29.95 in1014.2 mb 0.00 in0.0 mm 0.00 in/hr0.0 mm/hr 0.00 in0.0 mm
12:20 AM 60.0°F15.6°C 49.8°F9.9°C 69% Calm Calm -- 29.95 in1014.2 mb 0.00 in0.0 mm 0.00 in/hr0.0 mm/hr 0.00 in0.0 mm
12:30 AM 60.0°F15.6°C 50.2°F10.1°C 70% Calm Calm -- 29.94 in1013.9 mb 0.00 in0.0 mm 0.00 in/hr0.0 mm/hr 0.00 in0.0 mm
12:40 AM 60.0°F15.6°C 50.2°F10.1°C 70% Calm Calm -- 29.94 in1013.9 mb 0.00 in0.0 mm 0.00 in/hr0.0 mm/hr 0.00 in0.0 mm
12:50 AM 60.0°F15.6°C 50.6°F10.3°C 71% Calm Calm -- 29.93 in1013.5 mb 0.00 in0.0 mm 0.00 in/hr0.0 mm/hr 0.00 in0.0 mm
01:00 AM 59.9°F15.5°C 50.5°F10.3°C 71% Calm Calm -- 29.93 in1013.5 mb 0.00 in0.0 mm 0.00 in/hr0.0 mm/hr 0.00 in0.0 mm
01:10 AM 59.7°F15.4°C 50.3°F10.2°C 71% Calm Calm -- 29.93 in1013.5 mb 0.00 in0.0 mm 0.00 in/hr0.0 mm/hr 0.00 in0.0 mm
01:20 AM 59.5°F15.3°C 50.1°F10.1°C 71% Calm Calm -- 29.92 in1013.2 mb 0.00 in0.0 mm 0.00 in/hr0.0 mm/hr 0.00 in0.0 mm
01:30 AM 59.3°F15.2°C 49.9°F9.9°C 71% Calm Calm -- 29.91 in1012.9 mb 0.00 in0.0 mm 0.00 in/hr0.0 mm/hr 0.00 in0.0 mm
01:40 AM 59.1°F15.1°C 49.7°F9.8°C 71% Calm Calm -- 29.91 in1012.9 mb 0.00 in0.0 mm 0.00 in/hr0.0 mm/hr 0.00 in0.0 mm
01:50 AM 58.9°F14.9°C 49.5°F9.7°C 71% Calm Calm -- 29.90 in1012.5 mb 0.00 in0.0 mm 0.00 in/hr0.0 mm/hr 0.00 in0.0 mm
02:00 AM 58.7°F14.8°C 49.7°F9.8°C 72% Calm Calm -- 29.90 in1012.5 mb 0.00 in0.0 mm 0.00 in/hr0.0 mm/hr 0.00 in0.0 mm
02:10 AM 58.5°F14.7°C 49.5°F9.7°C 72% Calm Calm -- 29.90 in1012.5 mb 0.00 in0.0 mm 0.00 in/hr0.0 mm/hr 0.00 in0.0 mm
02:20 AM 58.4°F14.7°C 49.4°F9.7°C 72% Calm Calm -- 29.90 in1012.5 mb 0.00 in0.0 mm 0.00 in/hr0.0 mm/hr 0.00 in0.0 mm
02:30 AM 58.2°F14.6°C 49.2°F9.6°C 72% Calm Calm -- 29.89 in1012.2 mb 0.00 in0.0 mm 0.00 in/hr0.0 mm/hr 0.00 in0.0 mm
02:40 AM 58.0°F14.4°C 49.0°F9.4°C 72% Calm Calm -- 29.89 in1012.2 mb 0.00 in0.0 mm 0.00 in/hr0.0 mm/hr 0.00 in0.0 mm
02:50 AM 57.8°F14.3°C 48.8°F9.3°C 72% Calm Calm -- 29.87 in1011.5 mb 0.00 in0.0 mm 0.00 in/hr0.0 mm/hr 0.00 in0.0 mm
03:00 AM 57.7°F14.3°C 48.7°F9.3°C 72% Calm Calm -- 29.88 in1011.9 mb 0.00 in0.0 mm 0.00 in/hr0.0 mm/hr 0.00 in0.0 mm
03:10 AM 57.6°F14.2°C 49.0°F9.4°C 73% Calm Calm -- 29.87 in1011.5 mb 0.00 in0.0 mm 0.00 in/hr0.0 mm/hr 0.00 in0.0 mm
03:20 AM 57.5°F14.2°C 48.9°F9.4°C 73% Calm Calm -- 29.86 in1011.2 mb 0.00 in0.0 mm 0.00 in/hr0.0 mm/hr 0.00 in0.0 mm
03:30 AM 57.5°F14.2°C 48.9°F9.4°C 73% Calm Calm -- 29.87 in1011.5 mb 0.00 in0.0 mm 0.00 in/hr0.0 mm/hr 0.00 in0.0 mm
03:40 AM 57.5°F14.2°C 48.9°F9.4°C 73% Calm Calm -- 29.87 in1011.5 mb 0.00 in0.0 mm 0.00 in/hr0.0 mm/hr 0.00 in0.0 mm
03:50 AM 57.6°F14.2°C 49.4°F9.7°C 74% Calm Calm -- 29.86 in1011.2 mb 0.00 in0.0 mm 0.00 in/hr0.0 mm/hr 0.00 in0.0 mm
04:00 AM 57.6°F14.2°C 49.4°F9.7°C 74% Calm Calm -- 29.87 in1011.5 mb 0.00 in0.0 mm 0.00 in/hr0.0 mm/hr 0.00 in0.0 mm
04:10 AM 57.5°F14.2°C 49.3°F9.6°C 74% Calm Calm -- 29.86 in1011.2 mb 0.00 in0.0 mm 0.00 in/hr0.0 mm/hr 0.00 in0.0 mm
04:20 AM 57.4°F14.1°C 49.2°F9.6°C 74% Calm Calm -- 29.86 in1011.2 mb 0.00 in0.0 mm 0.00 in/hr0.0 mm/hr 0.00 in0.0 mm
04:30 AM 57.3°F14.1°C 49.1°F9.5°C 74% Calm Calm -- 29.85 in1010.8 mb 0.00 in0.0 mm 0.00 in/hr0.0 mm/hr 0.00 in0.0 mm
04:40 AM 57.4°F14.1°C 49.2°F9.6°C 74% Calm Calm -- 29.85 in1010.8 mb 0.00 in0.0 mm 0.00 in/hr0.0 mm/hr 0.00 in0.0 mm
04:50 AM 57.5°F14.2°C 49.3°F9.6°C 74% Calm Calm -- 29.84 in1010.5 mb 0.00 in0.0 mm 0.00 in/hr0.0 mm/hr 0.00 in0.0 mm
05:00 AM 57.5°F14.2°C 49.6°F9.8°C 75% Calm Calm -- 29.84 in1010.5 mb 0.00 in0.0 mm 0.00 in/hr0.0 mm/hr 0.00 in0.0 mm
05:10 AM 57.5°F14.2°C 49.7°F9.8°C 75% Calm Calm -- 29.84 in1010.5 mb 0.00 in0.0 mm 0.00 in/hr0.0 mm/hr 0.00 in0.0 mm
05:20 AM 57.6°F14.2°C 49.7°F9.8°C 75% Calm Calm -- 29.83 in1010.2 mb 0.00 in0.0 mm 0.00 in/hr0.0 mm/hr 0.00 in0.0 mm
05:30 AM 57.5°F14.2°C 49.6°F9.8°C 75% Calm Calm -- 29.84 in1010.5 mb 0.00 in0.0 mm 0.00 in/hr0.0 mm/hr 0.00 in0.0 mm
05:40 AM 57.5°F14.2°C 49.6°F9.8°C 75% Calm Calm -- 29.83 in1010.2 mb 0.00 in0.0 mm 0.00 in/hr0.0 mm/hr 0.00 in0.0 mm
05:50 AM 57.6°F14.2°C 50.1°F10.1°C 76% Calm Calm -- 29.83 in1010.2 mb 0.00 in0.0 mm 0.00 in/hr0.0 mm/hr 0.00 in0.0 mm
06:00 AM 57.7°F14.3°C 50.2°F10.1°C 76% Calm Calm -- 29.83 in1010.2 mb 0.00 in0.0 mm 0.00 in/hr0.0 mm/hr 0.00 in0.0 mm
06:10 AM 57.9°F14.4°C 50.4°F10.2°C 76% Calm Calm -- 29.83 in1010.2 mb 0.00 in0.0 mm 0.00 in/hr0.0 mm/hr 0.00 in0.0 mm
06:20 AM 58.1°F14.5°C 50.6°F10.3°C 76% Calm Calm -- 29.83 in1010.2 mb 0.00 in0.0 mm 0.00 in/hr0.0 mm/hr 0.00 in0.0 mm
06:30 AM 58.6°F14.8°C 51.0°F10.6°C 76% 4.6 mph S7.4 kmh S 8.1 mph13.0 kmh 29.86 in1011.2 mb 0.00 in0.0 mm 0.00 in/hr0.0 mm/hr 0.00 in0.0 mm
06:40 AM 59.2°F15.1°C 51.6°F10.9°C 76% 9.2 mph SSW14.8 kmh SSW 17.3 mph27.8 kmh 29.90 in1012.5 mb 0.00 in0.0 mm 0.00 in/hr0.0 mm/hr 0.00 in0.0 mm
06:50 AM 59.6°F15.3°C 52.0°F11.1°C 76% Calm Calm -- 29.91 in1012.9 mb 0.00 in0.0 mm 0.00 in/hr0.0 mm/hr 0.00 in0.0 mm
07:00 AM 60.0°F15.6°C 52.8°F11.6°C 77% Calm Calm -- 29.91 in1012.9 mb 0.00 in0.0 mm 0.00 in/hr0.0 mm/hr 0.00 in0.0 mm
07:10 AM 60.1°F15.6°C 52.9°F11.6°C 77% Calm Calm -- 29.92 in1013.2 mb 0.01 in0.3 mm 0.06 in/hr1.5 mm/hr 0.01 in0.3 mm
07:20 AM 60.3°F15.7°C 52.7°F11.5°C 76% Calm Calm -- 29.91 in1012.9 mb 0.01 in0.3 mm 0.06 in/hr1.5 mm/hr 0.01 in0.3 mm
07:30 AM 60.5°F15.8°C 52.9°F11.6°C 76% Calm Calm -- 29.89 in1012.2 mb 0.01 in0.3 mm 0.06 in/hr1.5 mm/hr 0.02 in0.5 mm
07:40 AM 60.9°F16.1°C 53.3°F11.8°C 76% Calm Calm -- 29.88 in1011.9 mb 0.00 in0.0 mm 0.00 in/hr0.0 mm/hr 0.02 in0.5 mm
07:50 AM 61.3°F16.3°C 53.7°F12.1°C 76% Calm Calm -- 29.88 in1011.9 mb 0.00 in0.0 mm 0.00 in/hr0.0 mm/hr 0.02 in0.5 mm
08:00 AM 61.4°F16.3°C 53.8°F12.1°C 76% Calm Calm -- 29.88 in1011.9 mb 0.00 in0.0 mm 0.00 in/hr0.0 mm/hr 0.02 in0.5 mm
08:10 AM 61.5°F16.4°C 53.9°F12.2°C 76% Calm Calm -- 29.87 in1011.5 mb 0.00 in0.0 mm 0.00 in/hr0.0 mm/hr 0.02 in0.5 mm
08:20 AM 61.7°F16.5°C 53.7°F12.1°C 75% Calm Calm -- 29.86 in1011.2 mb 0.00 in0.0 mm 0.00 in/hr0.0 mm/hr 0.02 in0.5 mm
08:30 AM 61.8°F16.6°C 53.8°F12.1°C 75% Calm Calm -- 29.88 in1011.9 mb 0.00 in0.0 mm 0.00 in/hr0.0 mm/hr 0.02 in0.5 mm
08:40 AM 61.8°F16.6°C 53.8°F12.1°C 75% Calm Calm -- 29.89 in1012.2 mb 0.01 in0.3 mm 0.06 in/hr1.5 mm/hr 0.03 in0.8 mm
08:50 AM 61.8°F16.6°C 53.8°F12.1°C 75% Calm Calm -- 29.88 in1011.9 mb 0.00 in0.0 mm 0.00 in/hr0.0 mm/hr 0.03 in0.8 mm
09:00 AM 62.0°F16.7°C 54.0°F12.2°C 75% Calm Calm -- 29.87 in1011.5 mb 0.01 in0.3 mm 0.01 in/hr0.3 mm/hr 0.04 in1.0 mm
09:10 AM 62.0°F16.7°C 53.9°F12.2°C 75% Calm Calm -- 29.88 in1011.9 mb 0.01 in0.3 mm 0.06 in/hr1.5 mm/hr 0.05 in1.3 mm
09:20 AM 62.0°F16.7°C 54.0°F12.2°C 75% Calm Calm -- 29.89 in1012.2 mb 0.01 in0.3 mm 0.06 in/hr1.5 mm/hr 0.06 in1.5 mm
09:30 AM 62.0°F16.7°C 54.0°F12.2°C 75% Calm Calm -- 29.91 in1012.9 mb 0.03 in0.8 mm 0.18 in/hr4.6 mm/hr 0.09 in2.3 mm
09:40 AM 61.9°F16.6°C 53.9°F12.2°C 75% Calm Calm -- 29.89 in1012.2 mb 0.06 in1.5 mm 0.36 in/hr9.1 mm/hr 0.14 in3.6 mm
09:50 AM 61.8°F16.6°C 53.8°F12.1°C 75% Calm Calm -- 29.86 in1011.2 mb 0.07 in1.8 mm 0.42 in/hr10.7 mm/hr 0.20 in5.1 mm
10:00 AM 61.6°F16.4°C 53.6°F12.0°C 75% Calm Calm -- 29.86 in1011.2 mb 0.01 in0.3 mm 0.01 in/hr0.3 mm/hr 0.21 in5.3 mm
10:10 AM 61.4°F16.3°C 53.4°F11.9°C 75% Calm Calm -- 29.89 in1012.2 mb 0.06 in1.5 mm 0.36 in/hr9.1 mm/hr 0.27 in6.9 mm
10:20 AM 61.3°F16.3°C 53.3°F11.8°C 75% Calm Calm -- 29.91 in1012.9 mb 0.17 in4.3 mm 1.02 in/hr25.9 mm/hr 0.43 in10.9 mm
10:30 AM 61.1°F16.2°C 53.1°F11.7°C 75% Calm Calm -- 29.90 in1012.5 mb 0.12 in3.0 mm 0.72 in/hr18.3 mm/hr 0.53 in13.5 mm
10:40 AM 60.9°F16.1°C 52.9°F11.6°C 75% Calm Calm -- 29.88 in1011.9 mb 0.08 in2.0 mm 0.48 in/hr12.2 mm/hr 0.61 in15.5 mm
10:50 AM 60.9°F16.1°C 52.9°F11.6°C 75% Calm Calm 5.8 mph9.3 kmh 29.85 in1010.8 mb 0.04 in1.0 mm 0.24 in/hr6.1 mm/hr 0.64 in16.3 mm
11:00 AM 61.2°F16.2°C 53.2°F11.8°C 75% Calm Calm -- 29.88 in1011.9 mb 0.00 in0.0 mm 0.00 in/hr0.0 mm/hr 0.64 in16.3 mm
11:10 AM 61.2°F16.2°C 53.2°F11.8°C 75% Calm Calm -- 29.83 in1010.2 mb 0.03 in0.8 mm 0.18 in/hr4.6 mm/hr 0.67 in17.0 mm
11:20 AM 61.3°F16.3°C 53.3°F11.8°C 75% Calm Calm -- 29.84 in1010.5 mb 0.06 in1.5 mm 0.36 in/hr9.1 mm/hr 0.73 in18.5 mm
11:30 AM 61.5°F16.4°C 53.5°F11.9°C 75% Calm Calm -- 29.84 in1010.5 mb 0.03 in0.8 mm 0.18 in/hr4.6 mm/hr 0.76 in19.3 mm
11:40 AM 61.6°F16.4°C 53.6°F12.0°C 75% Calm Calm -- 29.84 in1010.5 mb 0.03 in0.8 mm 0.18 in/hr4.6 mm/hr 0.79 in20.1 mm
11:50 AM 62.0°F16.7°C 54.0°F12.2°C 75% Calm Calm -- 29.83 in1010.2 mb 0.01 in0.3 mm 0.06 in/hr1.5 mm/hr 0.79 in20.1 mm
12:00 PM 62.0°F16.7°C 54.0°F12.2°C 75% Calm Calm -- 29.83 in1010.2 mb 0.05 in1.3 mm 0.06 in/hr1.5 mm/hr 0.84 in21.3 mm
12:10 PM 62.0°F16.7°C 54.0°F12.2°C 75% Calm Calm -- 29.85 in1010.8 mb 0.02 in0.5 mm 0.12 in/hr3.0 mm/hr 0.85 in21.6 mm
12:20 PM 62.4°F16.9°C 54.4°F12.4°C 75% Calm Calm -- 29.83 in1010.2 mb 0.08 in2.0 mm 0.48 in/hr12.2 mm/hr 0.93 in23.6 mm
12:30 PM 62.4°F16.9°C 54.4°F12.4°C 75% Calm Calm -- 29.82 in1009.8 mb 0.03 in0.8 mm 0.18 in/hr4.6 mm/hr 0.96 in24.4 mm
12:40 PM 62.4°F16.9°C 54.4°F12.4°C 75% Calm Calm -- 29.82 in1009.8 mb 0.08 in2.0 mm 0.48 in/hr12.2 mm/hr 1.02 in25.9 mm
12:50 PM 62.4°F16.9°C 54.4°F12.4°C 75% Calm Calm -- 29.82 in1009.8 mb 0.17 in4.3 mm 1.02 in/hr25.9 mm/hr 1.17 in29.7 mm
01:00 PM 62.9°F17.2°C 54.5°F12.5°C 74% Calm Calm -- 29.82 in1009.8 mb 0.04 in1.0 mm 0.05 in/hr1.3 mm/hr 1.20 in30.5 mm
01:10 PM 63.9°F17.7°C 55.4°F13.0°C 74% 2.3 mph S3.7 kmh S 4.6 mph7.4 kmh 29.81 in1009.5 mb 0.02 in0.5 mm 0.12 in/hr3.0 mm/hr 1.22 in31.0 mm
01:20 PM 64.0°F17.8°C 55.6°F13.1°C 74% 3.5 mph SSW5.6 kmh SSW 6.9 mph11.1 kmh 29.82 in1009.8 mb 0.00 in0.0 mm 0.00 in/hr0.0 mm/hr 1.22 in31.0 mm
01:30 PM 63.8°F17.7°C 55.3°F12.9°C 74% 6.9 mph SSW11.1 kmh SSW 11.5 mph18.5 kmh 29.81 in1009.5 mb 0.00 in0.0 mm 0.00 in/hr0.0 mm/hr 1.22 in31.0 mm
01:40 PM 63.1°F17.3°C 54.7°F12.6°C 74% 5.8 mph S9.3 kmh S 15.0 mph24.1 kmh 29.81 in1009.5 mb 0.00 in0.0 mm 0.00 in/hr0.0 mm/hr 1.22 in31.0 mm
01:50 PM 62.0°F16.7°C 54.0°F12.2°C 75% 4.6 mph S7.4 kmh S 6.9 mph11.1 kmh 29.81 in1009.5 mb 0.00 in0.0 mm 0.00 in/hr0.0 mm/hr 1.22 in31.0 mm
02:00 PM 61.3°F16.3°C 53.3°F11.8°C 75% 4.6 mph S7.4 kmh S 15.0 mph24.1 kmh 29.81 in1009.5 mb 0.00 in0.0 mm 0.00 in/hr0.0 mm/hr 1.22 in31.0 mm
02:10 PM 61.1°F16.2°C 52.7°F11.5°C 74% 8.1 mph S13.0 kmh S 13.8 mph22.2 kmh 29.82 in1009.8 mb 0.00 in0.0 mm 0.00 in/hr0.0 mm/hr 1.22 in31.0 mm
02:20 PM 61.5°F16.4°C 53.1°F11.7°C 74% 5.8 mph S9.3 kmh S 11.5 mph18.5 kmh 29.82 in1009.8 mb 0.00 in0.0 mm 0.00 in/hr0.0 mm/hr 1.22 in31.0 mm
02:30 PM 61.4°F16.3°C 53.4°F11.9°C 75% 1.2 mph S1.9 kmh S 10.4 mph16.7 kmh 29.82 in1009.8 mb 0.00 in0.0 mm 0.00 in/hr0.0 mm/hr 1.22 in31.0 mm
02:40 PM 61.7°F16.5°C 53.7°F12.1°C 75% Calm Calm -- 29.82 in1009.8 mb 0.00 in0.0 mm 0.00 in/hr0.0 mm/hr 1.22 in31.0 mm
02:50 PM 61.8°F16.6°C 53.8°F12.1°C 75% Calm Calm -- 29.82 in1009.8 mb 0.00 in0.0 mm 0.00 in/hr0.0 mm/hr 1.22 in31.0 mm
03:00 PM 61.9°F16.6°C 53.9°F12.2°C 75% 4.6 mph S7.4 kmh S 4.6 mph7.4 kmh 29.82 in1009.8 mb 0.00 in0.0 mm 0.00 in/hr0.0 mm/hr 1.22 in31.0 mm
03:10 PM 62.2°F16.8°C 54.5°F12.5°C 76% 2.3 mph SSW3.7 kmh SSW 8.1 mph13.0 kmh 29.82 in1009.8 mb 0.00 in0.0 mm 0.00 in/hr0.0 mm/hr 1.22 in31.0 mm
03:20 PM 62.5°F16.9°C 54.8°F12.7°C 76% 3.5 mph S5.6 kmh S 4.6 mph7.4 kmh 29.82 in1009.8 mb 0.00 in0.0 mm 0.00 in/hr0.0 mm/hr 1.22 in31.0 mm
03:30 PM 63.8°F17.7°C 55.7°F13.2°C 75% 4.6 mph S7.4 kmh S 5.8 mph9.3 kmh 29.81 in1009.5 mb 0.00 in0.0 mm 0.00 in/hr0.0 mm/hr 1.22 in31.0 mm
03:40 PM 64.5°F18.1°C 56.8°F13.8°C 76% 6.9 mph S11.1 kmh S 10.4 mph16.7 kmh 29.82 in1009.8 mb 0.00 in0.0 mm 0.00 in/hr0.0 mm/hr 1.22 in31.0 mm
03:50 PM 64.6°F18.1°C 56.8°F13.8°C 76% 2.3 mph SE3.7 kmh SE 6.9 mph11.1 kmh 29.82 in1009.8 mb 0.00 in0.0 mm 0.00 in/hr0.0 mm/hr 1.22 in31.0 mm
04:00 PM 64.4°F18.0°C 56.7°F13.7°C 76% Calm Calm 8.1 mph13.0 kmh 29.82 in1009.8 mb 0.00 in0.0 mm 0.00 in/hr0.0 mm/hr 1.22 in31.0 mm
04:10 PM 64.5°F18.1°C 56.8°F13.8°C 76% 5.8 mph S9.3 kmh S 6.9 mph11.1 kmh 29.82 in1009.8 mb 0.00 in0.0 mm 0.00 in/hr0.0 mm/hr 1.22 in31.0 mm
04:20 PM 64.5°F18.1°C 56.4°F13.6°C 75% 6.9 mph S11.1 kmh S 11.5 mph18.5 kmh 29.82 in1009.8 mb 0.00 in0.0 mm 0.00 in/hr0.0 mm/hr 1.22 in31.0 mm
04:30 PM 64.3°F17.9°C 56.2°F13.4°C 75% 12.7 mph S20.4 kmh S 13.8 mph22.2 kmh 29.84 in1010.5 mb 0.00 in0.0 mm 0.00 in/hr0.0 mm/hr 1.22 in31.0 mm
04:40 PM 63.0°F17.2°C 55.3°F12.9°C 76% 5.8 mph S9.3 kmh S 11.5 mph18.5 kmh 29.85 in1010.8 mb 0.00 in0.0 mm 0.00 in/hr0.0 mm/hr 1.22 in31.0 mm
04:50 PM 62.3°F16.8°C 54.6°F12.6°C 76% 8.1 mph S13.0 kmh S 19.6 mph31.5 kmh 29.86 in1011.2 mb 0.00 in0.0 mm 0.00 in/hr0.0 mm/hr 1.22 in31.0 mm
05:00 PM 61.2°F16.2°C 53.6°F12.0°C 76% 9.2 mph S14.8 kmh S 18.4 mph29.6 kmh 29.87 in1011.5 mb 0.00 in0.0 mm 0.00 in/hr0.0 mm/hr 1.22 in31.0 mm
09:30 PM 53.6°F12.0°C 46.2°F7.9°C 76% 1.2 mph S1.9 kmh S 2.3 mph3.7 kmh 30.01 in1016.3 mb 0.00 in0.0 mm 0.00 in/hr0.0 mm/hr 1.22 in31.0 mm
09:40 PM 53.3°F11.8°C 46.3°F7.9°C 77% Calm Calm -- 30.01 in1016.3 mb 0.00 in0.0 mm 0.00 in/hr0.0 mm/hr 1.22 in31.0 mm
09:50 PM 53.1°F11.7°C 46.1°F7.8°C 77% Calm Calm -- 30.01 in1016.3 mb 0.00 in0.0 mm 0.00 in/hr0.0 mm/hr 1.22 in31.0 mm
10:00 PM 52.8°F11.6°C 45.8°F7.7°C 77% Calm Calm -- 30.01 in1016.3 mb 0.00 in0.0 mm 0.00 in/hr0.0 mm/hr 1.22 in31.0 mm
10:10 PM 52.5°F11.4°C 45.5°F7.5°C 77% 3.5 mph SSW5.6 kmh SSW 8.1 mph13.0 kmh 30.01 in1016.3 mb 0.00 in0.0 mm 0.00 in/hr0.0 mm/hr 1.22 in31.0 mm
10:20 PM 52.3°F11.3°C 45.3°F7.4°C 77% 1.2 mph SW1.9 kmh SW 4.6 mph7.4 kmh 30.02 in1016.6 mb 0.00 in0.0 mm 0.00 in/hr0.0 mm/hr 1.22 in31.0 mm
10:30 PM 52.1°F11.2°C 45.4°F7.4°C 78% 2.3 mph SSW3.7 kmh SSW 3.5 mph5.6 kmh 30.02 in1016.6 mb 0.00 in0.0 mm 0.00 in/hr0.0 mm/hr 1.22 in31.0 mm
10:40 PM 51.9°F11.1°C 45.3°F7.4°C 78% Calm Calm -- 30.02 in1016.6 mb 0.00 in0.0 mm 0.00 in/hr0.0 mm/hr 1.22 in31.0 mm
10:50 PM 51.8°F11.0°C 45.2°F7.3°C 78% Calm Calm -- 30.02 in1016.6 mb 0.00 in0.0 mm 0.00 in/hr0.0 mm/hr 1.22 in31.0 mm
11:00 PM 51.7°F10.9°C 45.1°F7.3°C 78% 2.3 mph SW3.7 kmh SW 3.5 mph5.6 kmh 30.03 in1016.9 mb 0.00 in0.0 mm 0.00 in/hr0.0 mm/hr 1.36 in34.5 mm
11:10 PM 51.6°F10.9°C 45.0°F7.2°C 78% Calm Calm 4.6 mph7.4 kmh 30.03 in1016.9 mb 0.00 in0.0 mm 0.00 in/hr0.0 mm/hr 1.36 in34.5 mm
11:20 PM 51.4°F10.8°C 44.8°F7.1°C 78% 1.2 mph SW1.9 kmh SW 1.2 mph1.9 kmh 30.03 in1016.9 mb 0.00 in0.0 mm 0.00 in/hr0.0 mm/hr 1.36 in34.5 mm
11:30 PM 51.2°F10.7°C 44.6°F7.0°C 78% 2.3 mph S3.7 kmh S 4.6 mph7.4 kmh 30.03 in1016.9 mb 0.00 in0.0 mm 0.00 in/hr0.0 mm/hr 1.36 in34.5 mm
11:40 PM 51.0°F10.6°C 44.4°F6.9°C 78% 3.5 mph S5.6 kmh S 4.6 mph7.4 kmh 30.03 in1016.9 mb 0.00 in0.0 mm 0.00 in/hr0.0 mm/hr 1.36 in34.5 mm
11:50 PM 50.8°F10.4°C 44.2°F6.8°C 78% Calm Calm -- 30.04 in1017.3 mb 0.00 in0.0 mm 0.00 in/hr0.0 mm/hr 1.36 in34.5 mm